createdAt,value
2022-11-07T00:05:04.206Z,10.45
2022-11-07T00:11:27.166Z,10.48
2022-11-07T00:17:47.194Z,10.51
2022-11-07T00:24:10.189Z,10.49
2022-11-07T00:30:30.205Z,10.45
2022-11-07T00:36:53.222Z,10.42
2022-11-07T00:43:14.438Z,10.41
2022-11-07T00:49:37.209Z,10.43
2022-11-07T00:55:57.213Z,10.45
2022-11-07T01:02:20.274Z,10.48
2022-11-07T01:08:40.206Z,10.52
2022-11-07T01:15:03.198Z,10.57
2022-11-07T01:21:23.211Z,10.62
2022-11-07T01:27:46.143Z,10.64
2022-11-07T01:34:06.187Z,10.64
2022-11-07T01:40:29.173Z,10.61
2022-11-07T01:46:49.143Z,10.56
2022-11-07T01:53:12.401Z,10.53
2022-11-07T01:59:32.153Z,10.52
2022-11-07T02:05:55.187Z,10.51
2022-11-07T02:12:15.171Z,10.48
2022-11-07T02:18:38.169Z,10.48
2022-11-07T02:24:58.188Z,10.56
2022-11-07T02:31:21.188Z,10.62
2022-11-07T02:37:41.219Z,10.67
2022-11-07T02:44:04.177Z,10.69
2022-11-07T02:50:24.167Z,10.73
2022-11-07T02:56:47.185Z,10.77
2022-11-07T03:03:07.140Z,10.8
2022-11-07T03:09:30.218Z,10.82
2022-11-07T03:15:50.153Z,10.84
2022-11-07T03:22:13.164Z,10.84
2022-11-07T03:28:33.201Z,10.85
2022-11-07T03:34:56.145Z,10.88
2022-11-07T03:41:16.173Z,10.93
2022-11-07T03:47:39.177Z,10.96
2022-11-07T03:53:59.166Z,10.98
2022-11-07T04:00:22.227Z,10.95
2022-11-07T04:06:42.166Z,10.94
2022-11-07T04:13:05.187Z,10.89
2022-11-07T04:19:25.143Z,10.78
2022-11-07T04:25:48.267Z,10.59
2022-11-07T04:32:08.165Z,10.39
2022-11-07T04:48:19.159Z,9.93
2022-11-07T04:54:39.142Z,9.78
2022-11-07T05:01:02.245Z,9.63
2022-11-07T05:07:22.170Z,9.49
2022-11-07T05:13:45.147Z,9.41
2022-11-07T05:20:05.213Z,9.37
2022-11-07T05:26:28.225Z,9.31
2022-11-07T05:32:48.163Z,9.24
2022-11-07T05:39:11.167Z,9.14
2022-11-07T05:45:31.195Z,9.07
2022-11-07T05:51:54.167Z,9
2022-11-07T05:58:14.180Z,8.96
2022-11-07T06:04:37.174Z,8.99
2022-11-07T06:10:57.197Z,9.01
2022-11-07T06:17:20.154Z,8.97
2022-11-07T06:23:40.253Z,8.99
2022-11-07T06:30:03.216Z,9.11
2022-11-07T06:36:23.162Z,9.29
2022-11-07T06:42:46.263Z,9.45
2022-11-07T06:49:06.196Z,9.6
2022-11-07T06:55:29.198Z,9.77
2022-11-07T07:01:49.202Z,10
2022-11-07T07:08:12.199Z,10.26
2022-11-07T07:14:32.168Z,10.54
2022-11-07T07:20:55.276Z,10.74
2022-11-07T07:27:15.178Z,10.92
2022-11-07T07:33:38.180Z,11.16
2022-11-07T07:39:58.325Z,11.39
2022-11-07T07:46:21.192Z,11.67
2022-11-07T07:52:41.165Z,11.95
2022-11-07T07:59:04.311Z,12.15
2022-11-07T08:05:24.179Z,12.31
2022-11-07T08:11:47.176Z,12.46
2022-11-07T08:18:07.284Z,12.63
2022-11-07T08:24:30.201Z,12.79
2022-11-07T08:30:50.208Z,12.89
2022-11-07T08:37:13.169Z,12.98
2022-11-07T08:43:33.179Z,13.09
2022-11-07T08:49:56.169Z,13.24
2022-11-07T08:56:16.189Z,13.44
2022-11-07T09:03:08.680Z,13.67
2022-11-07T09:08:59.152Z,13.86
2022-11-07T09:15:22.215Z,13.99
2022-11-07T09:21:42.211Z,14.07
2022-11-07T09:28:05.183Z,14.18
2022-11-07T09:34:25.224Z,14.42
2022-11-07T09:40:48.166Z,14.54
2022-11-07T09:47:08.180Z,14.56
2022-11-07T09:53:31.209Z,14.59
2022-11-07T10:16:55.105Z,14.88
2022-11-07T10:23:15.446Z,14.89
2022-11-07T10:29:44.168Z,14.83
2022-11-07T10:35:58.225Z,14.83
2022-11-07T10:42:21.164Z,14.9
2022-11-07T10:48:41.484Z,15.01
2022-11-07T10:55:04.176Z,15.13
2022-11-07T11:01:24.338Z,15.26
2022-11-07T11:07:47.181Z,15.42
2022-11-07T11:14:07.180Z,15.66
2022-11-07T11:20:30.203Z,15.96
2022-11-07T11:26:50.175Z,16.47
2022-11-07T11:33:13.481Z,16.54
2022-11-07T11:39:33.214Z,16.73
2022-11-07T11:45:56.157Z,16.82
2022-11-07T11:52:16.227Z,16.67
2022-11-07T11:58:39.150Z,16.44
2022-11-07T12:04:59.154Z,16.35
2022-11-07T12:11:22.210Z,16.25
2022-11-07T12:17:42.179Z,16.24
2022-11-07T12:24:05.197Z,16.31
2022-11-07T12:30:25.190Z,16.37
2022-11-07T12:36:48.191Z,16.43
2022-11-07T12:43:08.187Z,16.53
2022-11-07T12:49:31.187Z,16.56
2022-11-07T12:55:51.210Z,16.48
2022-11-07T13:02:14.261Z,16.44
2022-11-07T13:08:35.152Z,16.47
2022-11-07T13:14:57.169Z,16.52
2022-11-07T13:21:17.154Z,16.51
2022-11-07T13:27:40.247Z,16.4
2022-11-07T13:34:00.172Z,16.26
2022-11-07T13:40:23.444Z,16.22
2022-11-07T13:46:43.413Z,16.22
2022-11-07T13:53:06.220Z,16.2
2022-11-07T13:59:26.174Z,16.16
2022-11-07T14:05:49.181Z,16.13
2022-11-07T14:12:09.175Z,16.1
2022-11-07T14:18:32.353Z,16.1
2022-11-07T14:24:52.406Z,16.1
2022-11-07T14:31:15.159Z,16.1
2022-11-07T14:37:35.186Z,16.04
2022-11-07T14:43:58.228Z,16
2022-11-07T14:50:18.163Z,15.91
2022-11-07T14:56:41.217Z,15.79
2022-11-07T15:03:01.238Z,15.69
2022-11-07T15:09:24.174Z,15.57
2022-11-07T15:15:44.403Z,15.47
2022-11-07T15:22:07.483Z,15.39
2022-11-07T15:39:02.115Z,15.2
2022-11-07T15:45:25.143Z,15.12
2022-11-07T15:51:45.170Z,15.05
2022-11-07T15:58:08.204Z,14.98
2022-11-07T16:04:28.240Z,14.9
2022-11-07T16:10:51.206Z,14.83
2022-11-07T16:17:11.194Z,14.77
2022-11-07T16:23:34.181Z,14.72
2022-11-07T16:29:54.144Z,14.69
2022-11-07T16:36:17.190Z,14.65
2022-11-07T16:42:37.197Z,14.63
2022-11-07T16:49:00.285Z,14.61
2022-11-07T16:55:20.221Z,14.59
2022-11-07T17:01:43.329Z,14.56
2022-11-07T17:08:03.168Z,14.52
2022-11-07T17:14:26.460Z,14.49
2022-11-07T17:20:51.180Z,14.46
2022-11-07T17:27:09.213Z,14.41
2022-11-07T17:33:29.168Z,14.38
2022-11-07T17:39:52.189Z,14.38
2022-11-07T17:46:12.141Z,14.39
2022-11-07T17:52:35.170Z,14.41
2022-11-07T17:58:55.172Z,14.42
2022-11-07T18:05:18.163Z,14.43
2022-11-07T18:11:38.194Z,14.45
2022-11-07T18:18:01.980Z,14.48
2022-11-07T18:24:21.158Z,14.49
2022-11-07T18:30:44.198Z,14.49
2022-11-07T18:37:04.156Z,14.48
2022-11-07T18:43:27.201Z,14.48
2022-11-07T18:49:47.194Z,14.47
2022-11-07T18:56:10.155Z,14.45
2022-11-07T19:02:30.275Z,14.42
2022-11-07T19:08:53.163Z,14.39
2022-11-07T19:15:13.156Z,14.33
2022-11-07T19:21:38.167Z,14.26
2022-11-07T19:27:56.175Z,14.17
2022-11-07T19:34:19.171Z,14.05
2022-11-07T19:40:39.146Z,13.92
2022-11-07T19:47:02.182Z,13.77
2022-11-07T19:53:22.163Z,13.63
2022-11-07T19:59:45.151Z,13.5
2022-11-07T20:06:05.195Z,13.37
2022-11-07T20:12:28.152Z,13.2
2022-11-07T20:18:48.164Z,13.04
2022-11-07T20:25:11.197Z,12.88
2022-11-07T20:31:31.152Z,12.72
2022-11-07T20:37:54.189Z,12.55
2022-11-07T20:44:14.172Z,12.43
2022-11-07T21:09:00.576Z,12.01
2022-11-07T21:15:20.174Z,11.92
2022-11-07T21:21:43.140Z,11.84
2022-11-07T21:28:03.207Z,11.77
2022-11-07T21:34:26.148Z,11.7
2022-11-07T21:40:46.197Z,11.65
2022-11-07T21:47:09.239Z,11.58
2022-11-07T21:53:29.163Z,11.52
2022-11-07T21:59:52.180Z,11.44
2022-11-07T22:06:12.190Z,11.38
2022-11-07T22:12:35.343Z,11.26
2022-11-07T22:18:55.220Z,11.12
2022-11-07T22:25:18.183Z,11.03
2022-11-07T22:31:38.168Z,10.92
2022-11-07T22:38:01.167Z,10.8
2022-11-07T22:44:21.207Z,10.66
2022-11-07T22:50:44.171Z,10.61
2022-11-07T22:57:04.141Z,10.76
2022-11-07T23:20:01.159Z,12.08
2022-11-07T23:26:21.132Z,12.14
2022-11-07T23:32:44.188Z,12.19
2022-11-07T23:39:04.254Z,12.25
2022-11-07T23:45:27.165Z,12.23
2022-11-07T23:51:47.188Z,12.12
2022-11-07T23:58:10.216Z,12.01
